Time;durP1;ratioP1;P1;durP2;ratioP2;P2;SDS_P1;SDS_P2;PMS_P1;PMS_P2;Temp;Humidity;BMP_temperature;BMP_pressure;BME280_temperature;BME280_humidity;BME280_pressure;Samples;Min_cycle;Max_cycle;Signal;HPM_P1;HPM_P2
2022/08/15 00:00:35;;;;;;;9.25;4.63;;;23.40;79.30;;;;;;4933600;28;20070;-90
2022/08/15 00:03:02;;;;;;;7.95;4.68;;;23.60;79.40;;;;;;4933704;28;20070;-90
2022/08/15 00:05:33;;;;;;;7.38;4.40;;;23.50;79.30;;;;;;4934382;28;20131;-91
2022/08/15 00:07:59;;;;;;;;;;;23.50;79.40;;;;;;4933717;28;20035;-91
2022/08/15 00:10:25;;;;;;;8.18;4.53;;;23.50;79.30;;;;;;4932988;28;19907;-90
2022/08/15 00:12:50;;;;;;;7.90;4.57;;;23.50;79.30;;;;;;4933230;28;20024;-91
2022/08/15 00:15:19;;;;;;;7.82;4.68;;;23.60;79.20;;;;;;4941775;28;20118;-91
2022/08/15 00:17:48;;;;;;;9.45;5.07;;;23.40;79.10;;;;;;4933381;28;20051;-91
2022/08/15 00:20:14;;;;;;;8.90;4.38;;;23.40;79.10;;;;;;4933034;28;20186;-90
2022/08/15 00:22:49;;;;;;;7.00;4.22;;;23.50;79.30;;;;;;4933429;28;20035;-91
2022/08/15 00:25:15;;;;;;;7.75;4.10;;;23.50;79.30;;;;;;4932940;28;20050;-91
2022/08/15 00:27:41;;;;;;;8.38;4.63;;;23.50;79.40;;;;;;4933272;28;20502;-91
2022/08/15 00:30:08;;;;;;;8.50;4.40;;;23.50;79.30;;;;;;4932726;28;20055;-90
2022/08/15 00:32:34;;;;;;;7.00;4.40;;;23.50;79.40;;;;;;4933667;28;20024;-90
2022/08/15 00:35:00;;;;;;;7.90;4.85;;;23.50;79.40;;;;;;4933072;28;20024;-89
2022/08/15 00:37:26;;;;;;;8.27;4.63;;;23.50;79.50;;;;;;4933434;28;20034;-91
2022/08/15 00:39:52;;;;;;;7.53;4.57;;;23.50;79.50;;;;;;4933008;28;20027;-91
2022/08/15 00:42:24;;;;;;;9.23;4.43;;;23.40;79.50;;;;;;4933539;28;20050;-90
2022/08/15 00:44:50;;;;;;;7.63;4.63;;;23.40;79.30;;;;;;4934221;28;20028;-91
2022/08/15 00:47:20;;;;;;;9.50;4.65;;;23.50;79.50;;;;;;4937786;28;20020;-91
2022/08/15 00:49:46;;;;;;;7.15;4.40;;;23.60;79.60;;;;;;4955979;28;20020;-90
2022/08/15 00:52:24;;;;;;;7.80;4.47;;;23.50;79.50;;;;;;4944919;28;20111;-93
2022/08/15 00:54:56;;;;;;;6.90;4.47;;;23.50;79.40;;;;;;4937400;28;20035;-91
2022/08/15 00:57:27;;;;;;;8.43;4.47;;;23.50;79.40;;;;;;4937431;28;20036;-93
2022/08/15 01:00:00;;;;;;;7.50;4.13;;;23.50;79.30;;;;;;4936907;28;20031;-92
2022/08/15 01:02:31;;;;;;;8.45;4.50;;;23.50;79.20;;;;;;4937255;28;20160;-92
2022/08/15 01:04:57;;;;;;;7.40;4.30;;;23.50;79.20;;;;;;4937161;28;20111;-92
2022/08/15 01:07:23;;;;;;;7.70;4.63;;;23.50;79.30;;;;;;4934676;28;20062;-92
2022/08/15 01:09:50;;;;;;;6.63;4.07;;;23.50;79.30;;;;;;4934735;28;20028;-91
2022/08/15 01:12:19;;;;;;;6.38;4.18;;;23.50;79.30;;;;;;4943568;28;20027;-93
2022/08/15 01:14:52;;;;;;;6.43;4.35;;;23.40;79.40;;;;;;4952765;28;20051;-91
2022/08/15 01:17:20;;;;;;;8.70;4.38;;;23.50;79.40;;;;;;4952542;28;20027;-92
2022/08/15 01:19:50;;;;;;;6.55;4.03;;;23.40;79.40;;;;;;4939976;28;20027;-91
2022/08/15 01:22:16;;;;;;;8.30;4.63;;;23.50;79.50;;;;;;4932927;28;20486;-91
2022/08/15 01:24:58;;;;;;;6.97;4.20;;;23.40;79.50;;;;;;4945948;28;20039;-91
2022/08/15 01:27:29;;;;;;;8.68;4.78;;;23.40;79.60;;;;;;4931971;28;20020;-92
2022/08/15 01:29:56;;;;;;;7.25;4.40;;;23.50;79.60;;;;;;4931250;28;20066;-91
2022/08/15 01:32:21;;;;;;;6.63;4.43;;;23.50;79.50;;;;;;4932255;28;20032;-92
2022/08/15 01:34:47;;;;;;;6.60;4.07;;;23.40;79.50;;;;;;4932194;28;20390;-92
2022/08/15 01:37:13;;;;;;;7.22;4.30;;;23.50;79.60;;;;;;4931543;28;20387;-91
2022/08/15 01:39:47;;;;;;;7.45;4.50;;;23.50;79.50;;;;;;4943562;28;20038;-92
2022/08/15 01:42:22;;;;;;;6.93;4.45;;;23.50;79.50;;;;;;4926720;28;20042;-90
2022/08/15 01:44:53;;;;;;;7.25;5.03;;;23.60;80.00;;;;;;4931915;28;20059;-90
2022/08/15 01:47:49;;;;;;;7.22;4.53;;;23.50;79.30;;;;;;4932353;28;20020;-91
2022/08/15 01:50:23;;;;;;;7.13;4.35;;;23.50;79.40;;;;;;4931247;28;20043;-91
2022/08/15 01:52:56;;;;;;;7.43;4.85;;;23.50;79.40;;;;;;4932616;28;20070;-90
2022/08/15 01:55:53;;;;;;;7.30;4.35;;;23.50;79.50;;;;;;4937085;28;20036;-89
2022/08/15 01:58:19;;;;;;;8.35;4.53;;;23.50;79.50;;;;;;4938681;28;20040;-92
2022/08/15 02:00:53;;;;;;;7.13;4.50;;;23.50;79.60;;;;;;4934555;28;20118;-90
2022/08/15 02:03:20;;;;;;;7.03;4.15;;;23.80;79.70;;;;;;4932411;28;20072;-90
2022/08/15 02:05:45;;;;;;;6.90;4.30;;;24.40;80.10;;;;;;4930869;28;20027;-90
2022/08/15 02:08:11;;;;;;;6.85;4.00;;;23.40;79.50;;;;;;4934764;28;20039;-92
2022/08/15 02:10:36;;;;;;;6.63;4.22;;;23.40;79.60;;;;;;4930950;28;20166;-92
2022/08/15 02:13:03;;;;;;;7.18;4.63;;;23.40;79.70;;;;;;4923956;28;20111;-91
2022/08/15 02:15:28;;;;;;;6.72;4.30;;;23.50;79.80;;;;;;4931185;28;20521;-91
2022/08/15 02:17:54;;;;;;;8.20;4.60;;;23.40;79.60;;;;;;4931650;28;20035;-91
2022/08/15 02:20:19;;;;;;;6.30;4.03;;;23.50;79.80;;;;;;4930211;28;20036;-91
2022/08/15 02:22:45;;;;;;;7.32;4.50;;;23.40;79.70;;;;;;4935971;28;20127;-91
2022/08/15 02:25:11;;;;;;;7.07;4.15;;;23.50;79.70;;;;;;4936652;28;20067;-91
2022/08/15 02:27:38;;;;;;;6.40;3.92;;;23.50;79.70;;;;;;4938094;28;20043;-92
2022/08/15 02:30:13;;;;;;;6.93;4.28;;;23.50;79.60;;;;;;4929444;29;20036;-92
2022/08/15 02:32:40;;;;;;;7.05;4.22;;;23.50;79.50;;;;;;4918350;28;20571;-92
2022/08/15 02:35:08;;;;;;;7.30;4.55;;;23.50;79.40;;;;;;4924232;28;20031;-91
2022/08/15 02:37:34;;;;;;;6.22;4.18;;;23.50;79.60;;;;;;4936598;28;20028;-91
2022/08/15 02:40:00;;;;;;;8.10;4.50;;;23.40;79.60;;;;;;4931650;28;20138;-91
2022/08/15 02:42:26;;;;;;;7.20;4.43;;;23.50;79.70;;;;;;4930338;29;20075;-91
2022/08/15 02:44:52;;;;;;;6.43;3.97;;;23.40;79.60;;;;;;4931069;28;20114;-92
2022/08/15 02:47:18;;;;;;;6.10;3.80;;;23.40;79.70;;;;;;4931120;28;20032;-92
2022/08/15 02:49:45;;;;;;;9.43;4.90;;;23.40;80.30;;;;;;4931086;29;20062;-91
2022/08/15 02:52:12;;;;;;;6.93;4.10;;;23.40;79.70;;;;;;4934987;28;20088;-91
2022/08/15 02:54:40;;;;;;;6.85;4.38;;;24.10;80.10;;;;;;4934326;28;20032;-92
2022/08/15 02:57:06;;;;;;;7.30;4.10;;;23.40;79.70;;;;;;4947558;28;20062;-90
2022/08/15 02:59:32;;;;;;;8.52;4.43;;;23.90;80.00;;;;;;4948516;28;20030;-89
2022/08/15 03:01:59;;;;;;;7.45;4.20;;;23.40;79.90;;;;;;4935498;28;20093;-91
2022/08/15 03:04:25;;;;;;;6.78;4.35;;;23.40;79.80;;;;;;4930181;28;20027;-91
2022/08/15 03:06:53;;;;;;;6.55;3.88;;;23.40;79.90;;;;;;4945058;28;20039;-90
2022/08/15 03:09:20;;;;;;;5.78;4.00;;;23.50;80.00;;;;;;4937262;28;20506;-91
2022/08/15 03:11:46;;;;;;;6.22;3.97;;;23.40;79.90;;;;;;4944611;28;20019;-91
2022/08/15 03:14:16;;;;;;;7.10;4.05;;;23.50;80.00;;;;;;4929926;28;20129;-91
2022/08/15 03:16:43;;;;;;;7.57;4.32;;;23.50;79.80;;;;;;4935049;28;20038;-90
2022/08/15 03:19:18;;;;;;;5.95;3.90;;;23.50;79.80;;;;;;4937285;28;20035;-91
2022/08/15 03:21:46;;;;;;;7.80;4.75;;;23.50;79.70;;;;;;4935157;28;20061;-91
2022/08/15 03:24:13;;;;;;;6.68;4.28;;;23.40;79.80;;;;;;4933090;28;20101;-91
2022/08/15 03:26:39;;;;;;;6.43;4.13;;;23.40;79.90;;;;;;4930462;28;20510;-91
2022/08/15 03:29:06;;;;;;;7.10;4.30;;;23.50;79.90;;;;;;4928422;29;20450;-92
2022/08/15 03:31:34;;;;;;;6.75;4.15;;;23.50;80.00;;;;;;4929744;28;20055;-91
2022/08/15 03:34:01;;;;;;;6.40;4.00;;;23.40;80.00;;;;;;4923273;28;20031;-91
2022/08/15 03:36:27;;;;;;;6.35;4.10;;;23.40;80.00;;;;;;4930598;28;20039;-94
2022/08/15 03:38:53;;;;;;;7.35;4.10;;;23.30;80.00;;;;;;4930713;28;20028;-92
2022/08/15 03:41:19;;;;;;;7.18;4.43;;;23.30;80.00;;;;;;4941304;28;20031;-92
2022/08/15 03:43:46;;;;;;;6.60;4.30;;;23.40;80.10;;;;;;4941542;28;20034;-92
2022/08/15 03:46:18;;;;;;;6.55;3.90;;;23.50;80.20;;;;;;4932220;28;20044;-90
2022/08/15 03:48:47;;;;;;;7.00;3.95;;;23.40;80.20;;;;;;4951170;28;20038;-91
2022/08/15 03:51:16;;;;;;;6.20;3.92;;;23.40;80.20;;;;;;4933468;28;20051;-90
2022/08/15 03:53:53;;;;;;;6.28;3.97;;;23.40;80.20;;;;;;4931700;28;20036;-90
2022/08/15 03:56:24;;;;;;;7.03;4.03;;;23.40;80.20;;;;;;4928167;28;20028;-91
2022/08/15 03:58:51;;;;;;;6.15;4.15;;;23.40;80.10;;;;;;4932583;29;20039;-91
2022/08/15 04:01:20;;;;;;;6.55;4.20;;;23.40;80.10;;;;;;4929715;28;20042;-91
2022/08/15 04:03:48;;;;;;;6.38;4.30;;;23.40;80.10;;;;;;4922463;28;20134;-90
2022/08/15 04:06:16;;;;;;;8.00;4.10;;;23.40;79.90;;;;;;4935770;28;20028;-91
2022/08/15 04:08:46;;;;;;;6.68;4.40;;;23.40;80.00;;;;;;4933154;28;20084;-91
2022/08/15 04:11:13;;;;;;;6.35;4.00;;;23.80;80.30;;;;;;4944606;28;20027;-89
2022/08/15 04:13:39;;;;;;;6.50;4.18;;;23.40;80.20;;;;;;4947669;28;20038;-91
2022/08/15 04:16:05;;;;;;;6.57;4.00;;;23.50;80.20;;;;;;4929923;28;20032;-90
2022/08/15 04:18:31;;;;;;;6.20;3.75;;;23.40;80.20;;;;;;4946635;28;20028;-92
2022/08/15 04:20:59;;;;;;;7.70;3.90;;;23.40;80.30;;;;;;4949461;28;20122;-91
2022/08/15 04:23:25;;;;;;;5.97;3.88;;;24.20;80.80;;;;;;4911367;28;20042;-89
2022/08/15 04:25:51;;;;;;;6.35;3.80;;;23.40;80.40;;;;;;4943453;28;20031;-91
2022/08/15 04:28:20;;;;;;;6.00;4.05;;;23.40;80.30;;;;;;4933476;28;20101;-91
2022/08/15 04:30:48;;;;;;;6.82;3.90;;;23.40;80.40;;;;;;4933212;28;20082;-90
2022/08/15 04:33:18;;;;;;;6.50;4.20;;;23.30;80.30;;;;;;4930921;28;20040;-90
2022/08/15 04:35:46;;;;;;;5.65;3.65;;;23.40;80.40;;;;;;4931444;28;20030;-90
2022/08/15 04:38:13;;;;;;;6.20;3.85;;;23.30;80.40;;;;;;4921198;28;20058;-89
2022/08/15 04:40:40;;;;;;;6.00;3.90;;;23.30;80.40;;;;;;4932044;28;20024;-89
2022/08/15 04:43:06;;;;;;;5.65;3.88;;;23.40;80.40;;;;;;4929770;28;20028;-91
2022/08/15 04:45:34;;;;;;;7.03;3.90;;;23.50;80.50;;;;;;4926803;28;20036;-90
2022/08/15 04:48:02;;;;;;;5.63;3.67;;;23.40;80.20;;;;;;4919806;28;20552;-90
2022/08/15 04:50:30;;;;;;;5.70;3.67;;;23.50;80.30;;;;;;4922168;28;20085;-90
2022/08/15 04:52:57;;;;;;;6.43;3.95;;;23.40;80.30;;;;;;4935685;28;20028;-91
2022/08/15 04:55:25;;;;;;;5.72;3.63;;;23.40;80.30;;;;;;4952800;29;20027;-91
2022/08/15 04:57:52;;;;;;;5.88;3.63;;;23.40;80.40;;;;;;4953960;28;20032;-90
2022/08/15 05:00:23;;;;;;;6.70;4.10;;;23.40;80.30;;;;;;4931878;28;20059;-90
2022/08/15 05:03:05;;;;;;;6.07;3.65;;;24.30;80.90;;;;;;4934674;28;20046;-90
2022/08/15 05:05:36;;;;;;;5.57;3.47;;;24.70;81.30;;;;;;4940344;28;20510;-91
2022/08/15 05:08:02;;;;;;;;;;;23.40;80.60;;;;;;4932128;28;20028;-92
2022/08/15 05:10:28;;;;;;;5.82;3.72;;;23.40;80.50;;;;;;4932610;28;19911;-92
2022/08/15 05:12:54;;;;;;;5.68;3.80;;;23.40;80.60;;;;;;4935929;28;20028;-93
2022/08/15 05:15:21;;;;;;;6.35;3.90;;;24.10;81.00;;;;;;4941456;28;20020;-94
2022/08/15 05:18:11;;;;;;;6.15;3.88;;;23.40;80.60;;;;;;4932150;28;20031;-92
2022/08/15 05:21:08;;;;;;;6.03;3.95;;;23.40;80.70;;;;;;4931972;28;20047;-94
2022/08/15 05:23:41;;;;;;;6.03;3.85;;;23.40;80.60;;;;;;4938082;28;20023;-95
2022/08/15 05:28:35;;;;;;;5.80;3.50;;;23.40;80.70;;;;;;5041879;23;20408;-81
2022/08/15 05:31:05;;;;;;;6.00;3.90;;;23.40;80.60;;;;;;5018545;28;20045;-81
2022/08/15 05:33:30;;;;;;;6.03;3.75;;;23.40;80.60;;;;;;5036297;28;20029;-81
2022/08/15 05:35:59;;;;;;;5.75;3.70;;;23.40;80.50;;;;;;5021144;28;20088;-81
2022/08/15 05:38:33;;;;;;;6.95;4.25;;;23.40;80.50;;;;;;5021576;28;20029;-81
2022/08/15 05:41:01;;;;;;;5.32;3.40;;;23.40;80.50;;;;;;5022040;28;20033;-82
2022/08/15 05:44:07;;;;;;;5.75;3.47;;;23.40;80.60;;;;;;5021923;28;20049;-81
2022/08/15 05:46:45;;;;;;;6.28;3.90;;;23.40;80.60;;;;;;5037946;28;20072;-81
2022/08/15 05:49:26;;;;;;;6.10;4.15;;;23.40;80.70;;;;;;5020839;28;20037;-82
2022/08/15 05:51:59;;;;;;;;;;;23.40;80.80;;;;;;5020595;28;20036;-79
2022/08/15 05:54:44;;;;;;;6.30;3.90;;;23.40;80.70;;;;;;5038529;28;20422;-81
2022/08/15 05:57:17;;;;;;;6.38;3.70;;;23.40;80.70;;;;;;5019703;28;20030;-81
2022/08/15 05:59:48;;;;;;;6.28;4.20;;;23.40;80.80;;;;;;5037813;28;20052;-82
2022/08/15 06:02:20;;;;;;;6.00;3.80;;;23.40;80.90;;;;;;5038120;28;20030;-79
2022/08/15 06:05:00;;;;;;;6.55;3.80;;;23.40;80.90;;;;;;5020020;28;20093;-81
2022/08/15 06:07:26;;;;;;;5.82;3.72;;;23.40;80.60;;;;;;5019025;28;20029;-80
2022/08/15 06:10:00;;;;;;;6.30;3.78;;;23.40;80.60;;;;;;5019303;28;20033;-81
2022/08/15 06:12:43;;;;;;;5.75;3.67;;;23.40;80.60;;;;;;5016931;28;20022;-80
2022/08/15 06:15:30;;;;;;;5.53;3.58;;;23.40;80.50;;;;;;5018243;28;20017;-81
2022/08/15 06:18:00;;;;;;;5.32;3.85;;;23.50;80.60;;;;;;5018295;28;20577;-81
2022/08/15 06:20:36;;;;;;;6.10;3.90;;;23.50;80.40;;;;;;5017590;28;20041;-80
2022/08/15 06:23:17;;;;;;;6.50;3.95;;;23.50;80.30;;;;;;5022032;28;20025;-80
2022/08/15 06:25:59;;;;;;;5.90;3.60;;;23.50;80.20;;;;;;5032519;28;20029;-81
2022/08/15 06:28:55;;;;;;;5.45;3.67;;;23.50;80.30;;;;;;5057979;28;20025;-83
2022/08/15 06:31:31;;;;;;;5.93;3.70;;;23.50;80.40;;;;;;5026681;28;20021;-82
2022/08/15 06:34:04;;;;;;;6.13;3.83;;;23.50;80.40;;;;;;5019693;28;20480;-81
2022/08/15 06:36:44;;;;;;;5.65;3.67;;;23.60;80.50;;;;;;5019568;28;20125;-81
2022/08/15 06:39:43;;;;;;;5.28;3.53;;;23.50;80.40;;;;;;5019289;28;20053;-79
2022/08/15 06:42:41;;;;;;;5.30;3.45;;;23.50;80.40;;;;;;5036959;28;20029;-80
2022/08/15 06:45:22;;;;;;;6.03;4.00;;;23.50;80.30;;;;;;5018523;28;20033;-79
2022/08/15 06:47:58;;;;;;;5.50;3.67;;;23.60;80.30;;;;;;5035584;28;20060;-80
2022/08/15 06:50:49;;;;;;;5.85;3.60;;;23.60;80.20;;;;;;5016800;28;20017;-82
2022/08/15 06:53:22;;;;;;;5.90;3.72;;;23.60;80.10;;;;;;5017707;28;20021;-81
2022/08/15 06:56:02;;;;;;;6.97;4.00;;;23.60;80.10;;;;;;5017303;28;20363;-79
2022/08/15 06:58:55;;;;;;;6.63;3.72;;;23.60;80.00;;;;;;5017702;28;20036;-78
2022/08/15 07:01:31;;;;;;;5.55;3.42;;;23.70;79.80;;;;;;5017204;28;20492;-81
2022/08/15 07:04:09;;;;;;;5.80;3.97;;;23.80;79.70;;;;;;5034108;28;20025;-80
2022/08/15 07:06:41;;;;;;;6.47;3.60;;;23.80;79.40;;;;;;5013585;28;20030;-79
2022/08/15 07:09:42;;;;;;;6.53;4.07;;;23.80;79.30;;;;;;5016249;28;20424;-79
2022/08/15 07:12:33;;;;;;;6.45;3.70;;;23.90;79.30;;;;;;5016562;28;20513;-83
2022/08/15 07:15:04;;;;;;;6.53;3.67;;;23.90;79.30;;;;;;5016438;28;20473;-79
2022/08/15 07:17:49;;;;;;;6.05;3.60;;;23.90;79.30;;;;;;5016703;28;20022;-79
2022/08/15 07:20:14;;;;;;;5.10;3.50;;;23.90;79.30;;;;;;5016165;28;20504;-79
2022/08/15 07:22:40;;;;;;;5.85;3.83;;;23.90;79.40;;;;;;5034776;28;20025;-80
2022/08/15 07:25:12;;;;;;;5.80;3.70;;;23.90;79.40;;;;;;5036595;28;20021;-81
2022/08/15 07:27:39;;;;;;;5.80;3.65;;;23.90;79.40;;;;;;5018778;28;20124;-80
2022/08/15 07:30:24;;;;;;;5.80;3.53;;;23.90;79.40;;;;;;5018454;28;20554;-80
2022/08/15 07:32:55;;;;;;;6.43;3.78;;;23.90;79.40;;;;;;4978669;28;20025;-80
2022/08/15 07:35:32;;;;;;;6.10;4.00;;;23.90;79.30;;;;;;5036280;28;20029;-81
2022/08/15 07:38:03;;;;;;;5.40;3.50;;;24.00;79.30;;;;;;5018713;28;20283;-80
2022/08/15 07:40:34;;;;;;;5.90;3.67;;;24.00;79.20;;;;;;5035642;28;20021;-79
2022/08/15 07:43:05;;;;;;;5.82;3.72;;;24.00;79.00;;;;;;5036722;28;20033;-80
2022/08/15 07:45:37;;;;;;;6.53;4.15;;;24.10;79.00;;;;;;5018139;28;20029;-80
2022/08/15 07:48:17;;;;;;;5.60;3.95;;;24.10;78.80;;;;;;5035511;28;20058;-80
2022/08/15 07:50:44;;;;;;;5.75;4.00;;;24.10;78.60;;;;;;5035349;28;20036;-80
2022/08/15 07:53:18;;;;;;;5.70;3.70;;;24.20;78.50;;;;;;5036081;28;20033;-80
2022/08/15 07:56:05;;;;;;;6.28;3.95;;;24.20;78.40;;;;;;5017942;28;20068;-79
2022/08/15 07:58:33;;;;;;;5.53;3.70;;;24.20;78.20;;;;;;5017649;28;20400;-80
2022/08/15 08:01:29;;;;;;;5.68;3.88;;;24.20;78.40;;;;;;5035462;28;20051;-79
2022/08/15 08:04:13;;;;;;;5.95;3.60;;;24.20;78.50;;;;;;5038978;28;20025;-80
2022/08/15 08:06:59;;;;;;;6.00;4.10;;;24.10;78.60;;;;;;5038485;28;20025;-80
2022/08/15 08:09:31;;;;;;;6.18;4.10;;;24.10;78.80;;;;;;5020544;28;20489;-77
2022/08/15 08:12:05;;;;;;;;;;;24.10;78.90;;;;;;5020765;28;20030;-79
2022/08/15 08:14:55;;;;;;;5.85;3.80;;;24.10;78.90;;;;;;5020770;28;20359;-79
2022/08/15 08:17:48;;;;;;;5.90;3.85;;;24.10;79.00;;;;;;5037936;28;20025;-81
2022/08/15 08:20:36;;;;;;;6.10;4.10;;;24.10;78.90;;;;;;5019764;28;20032;-81
2022/08/15 08:23:14;;;;;;;5.57;3.67;;;24.10;79.40;;;;;;5037996;28;20029;-80
2022/08/15 08:26:06;;;;;;;6.15;4.05;;;24.10;78.90;;;;;;5020157;28;20064;-81
2022/08/15 08:28:56;;;;;;;6.72;3.80;;;24.10;78.70;;;;;;5040110;28;20108;-81
2022/08/15 08:31:41;;;;;;;6.25;3.60;;;24.20;78.80;;;;;;5040474;28;20647;-81
2022/08/15 08:34:25;;;;;;;5.22;3.55;;;24.20;78.70;;;;;;5021663;28;20025;-79
2022/08/15 08:37:05;;;;;;;5.60;3.70;;;24.20;78.60;;;;;;5039382;28;20097;-81
2022/08/15 08:39:34;;;;;;;;;;;24.30;78.50;;;;;;5022670;28;20034;-81
2022/08/15 08:42:22;;;;;;;5.13;3.50;;;24.30;78.50;;;;;;5039941;28;19905;-80
2022/08/15 08:45:01;;;;;;;5.80;3.75;;;24.30;78.50;;;;;;5040587;28;20021;-80
2022/08/15 08:47:58;;;;;;;5.82;3.80;;;24.30;78.50;;;;;;5022029;28;20083;-82
2022/08/15 08:50:58;;;;;;;5.72;3.55;;;24.30;78.60;;;;;;5038853;28;20029;-80
2022/08/15 08:53:49;;;;;;;5.55;3.72;;;24.30;78.70;;;;;;5021440;28;20080;-80
2022/08/15 08:56:21;;;;;;;5.50;3.72;;;24.30;78.70;;;;;;5039501;28;20481;-79
2022/08/15 08:58:54;;;;;;;5.22;3.35;;;24.20;78.70;;;;;;5020794;28;20033;-81
2022/08/15 09:01:23;;;;;;;5.40;3.58;;;24.20;78.70;;;;;;5021034;28;20091;-79
2022/08/15 09:03:54;;;;;;;5.70;3.65;;;24.30;78.80;;;;;;5020358;28;20028;-80
2022/08/15 09:06:25;;;;;;;5.70;3.63;;;24.30;78.80;;;;;;5020256;28;20055;-80
2022/08/15 09:08:54;;;;;;;;;;;24.30;78.70;;;;;;5020719;28;20092;-79
2022/08/15 09:11:27;;;;;;;5.47;3.58;;;24.30;78.70;;;;;;5037765;28;20499;-79
2022/08/15 09:13:57;;;;;;;5.45;3.55;;;24.30;78.80;;;;;;5019101;28;20033;-79
2022/08/15 09:16:36;;;;;;;6.00;3.92;;;24.30;78.70;;;;;;5037924;28;20025;-80
2022/08/15 09:19:24;;;;;;;5.70;3.80;;;24.30;78.60;;;;;;5037083;28;20111;-79
2022/08/15 09:21:50;;;;;;;5.28;3.38;;;24.30;78.60;;;;;;5019420;28;20022;-78
2022/08/15 09:24:19;;;;;;;5.07;3.40;;;24.30;78.60;;;;;;5019111;28;20033;-80
2022/08/15 09:27:06;;;;;;;5.45;3.63;;;24.30;78.60;;;;;;5019103;28;20033;-81
2022/08/15 09:29:41;;;;;;;4.95;3.30;;;24.30;78.70;;;;;;5018732;28;20025;-80
2022/08/15 09:32:22;;;;;;;5.10;3.47;;;24.30;78.80;;;;;;5019283;28;20022;-79
2022/08/15 09:35:16;;;;;;;5.53;3.45;;;24.20;78.90;;;;;;5019296;28;20116;-80
2022/08/15 09:38:21;;;;;;;5.90;3.60;;;24.20;79.00;;;;;;5037029;28;20025;-78
2022/08/15 09:40:58;;;;;;;5.57;3.58;;;24.10;79.10;;;;;;5017991;28;20120;-79
2022/08/15 09:43:42;;;;;;;5.80;3.90;;;24.10;79.20;;;;;;5018520;28;20441;-79
2022/08/15 09:46:49;;;;;;;5.82;3.90;;;24.10;79.20;;;;;;5036352;28;20032;-79
2022/08/15 09:49:37;;;;;;;5.80;3.45;;;24.10;79.30;;;;;;5018825;28;20132;-79
2022/08/15 09:52:09;;;;;;;5.43;3.70;;;24.10;79.30;;;;;;5018146;28;20018;-80
2022/08/15 09:54:48;;;;;;;5.55;3.40;;;24.10;79.40;;;;;;5018204;28;20025;-80
2022/08/15 09:57:29;;;;;;;5.60;3.38;;;24.10;79.40;;;;;;5018028;28;20072;-80
2022/08/15 10:00:17;;;;;;;5.30;3.40;;;24.00;79.40;;;;;;5017715;28;20488;-79
2022/08/15 10:02:46;;;;;;;6.05;3.42;;;24.10;79.50;;;;;;5035619;28;20037;-79
2022/08/15 10:05:43;;;;;;;5.20;3.60;;;24.10;79.40;;;;;;5017768;28;20025;-81
2022/08/15 10:08:13;;;;;;;5.13;3.22;;;24.10;79.20;;;;;;5017798;28;20033;-80
2022/08/15 10:10:49;;;;;;;5.15;3.28;;;24.20;79.00;;;;;;5016300;28;20025;-80
2022/08/15 10:13:39;;;;;;;5.65;3.70;;;24.30;78.90;;;;;;5035516;28;20017;-79
2022/08/15 10:16:36;;;;;;;5.63;3.40;;;24.30;78.90;;;;;;5017526;28;20021;-79
2022/08/15 10:19:06;;;;;;;5.68;3.40;;;24.30;78.90;;;;;;5018085;28;20029;-79
2022/08/15 10:21:42;;;;;;;6.00;3.70;;;24.30;78.90;;;;;;5017586;28;20037;-79
2022/08/15 10:24:28;;;;;;;5.35;3.45;;;24.40;79.00;;;;;;5034887;28;20025;-81
2022/08/15 10:27:07;;;;;;;4.97;3.30;;;24.40;79.00;;;;;;5020036;28;20041;-80
2022/08/15 10:29:35;;;;;;;6.05;3.50;;;24.40;79.00;;;;;;5020255;28;20037;-80
2022/08/15 10:32:03;;;;;;;5.20;3.33;;;24.40;78.90;;;;;;5020608;28;20083;-81
2022/08/15 10:34:48;;;;;;;5.25;3.45;;;24.50;78.80;;;;;;5020575;28;20037;-80
2022/08/15 10:37:22;;;;;;;4.90;3.20;;;24.50;78.90;;;;;;5020380;28;20068;-81
2022/08/15 10:40:11;;;;;;;5.18;3.40;;;24.50;78.70;;;;;;5019760;28;20032;-81
2022/08/15 10:42:54;;;;;;;5.28;3.40;;;24.50;79.30;;;;;;5019497;28;20543;-81
2022/08/15 10:45:34;;;;;;;4.68;3.17;;;24.50;78.80;;;;;;5036901;28;20021;-80
2022/08/15 10:48:14;;;;;;;5.50;3.50;;;24.40;78.40;;;;;;5019126;28;20029;-81
2022/08/15 10:51:21;;;;;;;5.60;3.03;;;24.40;78.60;;;;;;5036272;28;20855;-80
2022/08/15 10:54:23;;;;;;;5.68;3.17;;;24.40;78.80;;;;;;4990377;28;20044;-79
2022/08/15 10:56:54;;;;;;;4.68;2.95;;;24.40;78.80;;;;;;5018704;28;20025;-79
2022/08/15 10:59:26;;;;;;;5.25;2.97;;;24.30;78.80;;;;;;5018647;28;20047;-80
2022/08/15 11:02:05;;;;;;;4.82;3.20;;;24.30;79.00;;;;;;5018115;28;20447;-79
2022/08/15 11:04:37;;;;;;;4.57;2.95;;;24.30;79.00;;;;;;5017880;28;20056;-80
2022/08/15 11:07:40;;;;;;;5.55;3.58;;;24.20;79.20;;;;;;5017798;28;20033;-79
2022/08/15 11:10:11;;;;;;;5.28;3.30;;;24.20;79.30;;;;;;5034737;28;20045;-79
2022/08/15 11:12:43;;;;;;;5.70;3.50;;;24.20;79.50;;;;;;5035872;28;20030;-80
2022/08/15 11:15:25;;;;;;;4.20;2.92;;;24.10;79.60;;;;;;5017789;28;20029;-80
2022/08/15 11:18:01;;;;;;;5.00;3.10;;;24.10;79.70;;;;;;5017475;28;20053;-80
2022/08/15 11:20:40;;;;;;;4.72;2.80;;;24.10;79.80;;;;;;5016703;28;20500;-79
2022/08/15 11:23:07;;;;;;;4.93;3.25;;;24.00;79.80;;;;;;5016871;28;20026;-79
2022/08/15 11:25:37;;;;;;;5.63;3.22;;;24.00;79.80;;;;;;5016996;28;20598;-79
2022/08/15 11:28:10;;;;;;;5.68;3.03;;;24.00;79.90;;;;;;5017029;28;20091;-80
2022/08/15 11:30:39;;;;;;;5.78;3.10;;;24.00;79.80;;;;;;5016374;28;20026;-79
2022/08/15 11:33:21;;;;;;;5.80;3.20;;;24.00;79.60;;;;;;5016746;28;20405;-80
2022/08/15 11:35:48;;;;;;;4.80;2.92;;;24.00;79.60;;;;;;5035397;28;20021;-80
2022/08/15 11:38:16;;;;;;;5.47;3.40;;;24.00;79.60;;;;;;5020306;28;20488;-80
2022/08/15 11:40:48;;;;;;;6.15;3.40;;;24.00;79.70;;;;;;5022142;28;20520;-80
2022/08/15 11:43:16;;;;;;;4.70;2.90;;;24.00;79.60;;;;;;5041852;28;20025;-81
2022/08/15 11:45:48;;;;;;;5.28;3.00;;;24.00;79.60;;;;;;5041219;28;20025;-80
2022/08/15 11:48:20;;;;;;;5.70;3.10;;;24.00;79.60;;;;;;5023666;28;20523;-79
2022/08/15 11:51:27;;;;;;;4.82;3.20;;;24.00;79.70;;;;;;5022538;28;20022;-80
2022/08/15 11:54:04;;;;;;;6.07;3.17;;;24.00;79.90;;;;;;5040752;28;20459;-81
2022/08/15 11:56:52;;;;;;;4.30;2.75;;;24.00;80.30;;;;;;5040863;28;20029;-79
2022/08/15 11:59:26;;;;;;;4.40;2.75;;;23.90;80.40;;;;;;5022685;28;20467;-80
2022/08/15 12:02:03;;;;;;;4.82;2.85;;;23.90;80.30;;;;;;5022177;28;20097;-80
2022/08/15 12:04:32;;;;;;;5.22;3.10;;;23.90;80.40;;;;;;5040272;28;20032;-80
2022/08/15 12:07:09;;;;;;;4.75;2.90;;;23.90;80.50;;;;;;5022122;28;20503;-81
2022/08/15 12:09:35;;;;;;;4.82;3.10;;;23.80;80.50;;;;;;5038874;28;20029;-78
2022/08/15 12:12:01;;;;;;;4.72;3.00;;;23.80;80.50;;;;;;5020937;28;20036;-80
2022/08/15 12:14:28;;;;;;;4.68;2.92;;;23.80;80.50;;;;;;5039226;28;20154;-79
2022/08/15 12:16:53;;;;;;;4.53;3.00;;;23.80;80.40;;;;;;5039008;28;20022;-80
2022/08/15 12:19:34;;;;;;;4.82;3.00;;;23.80;80.50;;;;;;5020994;28;20041;-79
2022/08/15 12:22:06;;;;;;;5.68;3.30;;;23.90;80.60;;;;;;5020754;28;20029;-79
2022/08/15 12:24:34;;;;;;;4.47;2.80;;;23.90;80.50;;;;;;5020161;28;20436;-80
2022/08/15 12:27:02;;;;;;;4.47;2.80;;;23.90;80.40;;;;;;5020283;28;20037;-80
2022/08/15 12:29:31;;;;;;;4.20;2.92;;;23.90;80.40;;;;;;5019890;28;20031;-79
2022/08/15 12:31:58;;;;;;;5.40;3.10;;;23.90;80.30;;;;;;5016981;28;20033;-80
2022/08/15 12:34:36;;;;;;;4.40;2.78;;;23.90;80.30;;;;;;5018766;28;20049;-80
2022/08/15 12:37:05;;;;;;;4.07;2.70;;;23.90;80.40;;;;;;5041017;28;20033;-80
2022/08/15 12:39:31;;;;;;;4.88;3.00;;;23.90;80.50;;;;;;5039214;28;20029;-79
2022/08/15 12:41:57;;;;;;;4.60;2.90;;;23.80;80.60;;;;;;5040237;28;20566;-80
2022/08/15 12:44:24;;;;;;;4.82;2.80;;;23.90;80.70;;;;;;5024567;28;20507;-80
2022/08/15 12:46:51;;;;;;;5.00;3.10;;;23.80;81.30;;;;;;5021307;28;20084;-80
2022/08/15 12:49:17;;;;;;;4.35;2.75;;;23.80;80.80;;;;;;5021117;28;20026;-79
2022/08/15 12:51:43;;;;;;;4.22;3.03;;;23.80;80.70;;;;;;5038257;28;20101;-79
2022/08/15 12:54:08;;;;;;;4.55;2.83;;;23.80;80.80;;;;;;5020932;28;20680;-80
2022/08/15 12:56:34;;;;;;;4.68;2.90;;;23.80;80.80;;;;;;5020761;28;20082;-80
2022/08/15 12:59:03;;;;;;;5.13;2.90;;;23.80;80.80;;;;;;5037931;28;20032;-79
2022/08/15 13:01:29;;;;;;;4.78;2.85;;;23.80;80.70;;;;;;5019485;28;20021;-79
2022/08/15 13:03:54;;;;;;;4.55;2.85;;;23.80;80.70;;;;;;5020203;28;20400;-79
2022/08/15 13:06:26;;;;;;;4.22;2.55;;;23.90;80.70;;;;;;5019575;28;20032;-81
2022/08/15 13:08:52;;;;;;;4.15;2.70;;;23.90;80.70;;;;;;5020059;28;20496;-79
2022/08/15 13:11:18;;;;;;;4.43;2.80;;;23.90;80.50;;;;;;5019686;28;20033;-79
2022/08/15 13:13:44;;;;;;;5.20;3.15;;;23.90;80.50;;;;;;5019062;28;20021;-80
2022/08/15 13:16:09;;;;;;;4.63;2.70;;;24.00;80.40;;;;;;5019104;28;20412;-78
2022/08/15 13:18:36;;;;;;;4.40;3.00;;;24.00;80.40;;;;;;5037109;28;20395;-79
2022/08/15 13:23:51;;;;;;;4.32;2.80;;;23.90;80.50;;;;;;5036887;28;20079;-78
2022/08/15 13:26:18;;;;;;;4.60;3.00;;;23.90;80.60;;;;;;5038588;28;20028;-81